• Join FlightAware (Why Join?)
  • Login
  • US Flag 
10:01PM EDT


 

Airport Tracker/Info


-or-


 

Live Flight TrackerFlight Track Log ✈ UAL4843 ✈ 13-Apr-2013 ✈ KEWR - KBWI

Flight Track Log - Related Links

Times and Time Zones

All times are in EDT time to prevent confusion due to time zone crossing. See the UAL4843 flight status page for this flight to view local times or setup timezone preferences in your user account.

Time Position Orientation Groundspeed Altitude Reporting Facility
EDT Latitude Longitude Course Direction KTS MPH feet Rate Location/Type
12:59PM 40.5105 -74.4794 232° Southwest  Level Estimated
01:00PM 40.4739 -74.5413 232° Southwest  Level Estimated
01:01PM 40.4374 -74.6032 232° Southwest  Level Estimated
01:02PM 40.4008 -74.6650 232° Southwest  Level Estimated
01:03PM 40.3642 -74.7267 232° Southwest  Level Estimated
01:04PM 40.3276 -74.7884 232° Southwest  Level Estimated
01:05PM 40.2909 -74.8500 232° Southwest  Level Estimated
01:06PM 40.2542 -74.9115 232° Southwest  Level Estimated
01:07PM 40.2175 -74.9730 232° Southwest  Level Estimated
01:08PM 40.1807 -75.0344 232° Southwest  Level Estimated
01:09PM 40.1439 -75.0957 232° Southwest  Level Estimated
01:10PM 40.1071 -75.1570 232° Southwest  Level Estimated
01:11PM 40.0702 -75.2182 232° Southwest  Level Estimated
01:12PM 40.0333 -75.2793 232° Southwest  Level Estimated
01:13PM 39.9964 -75.3404 232° Southwest  Level Estimated
01:14PM 39.9594 -75.4014 232° Southwest  Level Estimated
01:15PM 39.9224 -75.4623 232° Southwest  Level Estimated
01:16PM 39.8854 -75.5232 232° Southwest  Level Estimated
01:17PM 39.8483 -75.5840 232° Southwest  Level Estimated
01:18PM 39.8112 -75.6448 232° Southwest  Level Estimated
01:19PM 39.7741 -75.7054 231° Southwest  Level Estimated
01:20PM 39.7370 -75.7660 231° Southwest  Level Estimated
01:21PM 39.6998 -75.8266 231° Southwest  Level Estimated
01:22PM 39.6626 -75.8871 231° Southwest  Level Estimated
01:23PM 39.6253 -75.9475 231° Southwest  Level Estimated
01:24PM 39.5881 -76.0078 231° Southwest  Level Estimated
01:25PM 39.5507 -76.0681 231° Southwest  Level Estimated
01:26PM 39.5134 -76.1283 231° Southwest  Level Estimated
01:27PM 39.4760 -76.1885 231° Southwest  Level Estimated
01:28PM 39.4386 -76.2486 231° Southwest  Level Estimated
01:29PM 39.4012 -76.3086 231° Southwest  Level Estimated
01:30PM 39.3637 -76.3686 231° Southwest  Level Estimated
01:31PM 39.3262 -76.4285 231° Southwest  Level Estimated
01:32PM 39.2887 -76.4883 231° Southwest  Level Estimated
01:33PM 39.2512 -76.5480 231° Southwest  Level Estimated
01:34PM 39.2136 -76.6077 231° Southwest  Level Estimated
01:35PM 39.1760 -76.6674 231° Southwest  Level Estimated
01:36PM 39.1754 -76.6683 231° Southwest  Level Estimated
01:37PM 39.1754 -76.6683 293° West  Level Estimated
01:38PM 39.1754 -76.6683 293° West  Level Estimated
01:39PM 39.1754 -76.6683 293° West  Level Estimated
01:40PM 39.1754 -76.6683 293° West  Level Estimated
01:41PM 39.1754 -76.6683 293° West  Level Estimated
01:42PM 39.1754 -76.6683 293° West  Level Estimated
01:43PM 39.1754 -76.6683 293° West  Level Estimated
01:44PM 39.1754 -76.6683 293° West  Level Estimated
01:45PM 39.1754 -76.6683 293° West  Level Estimated
01:46PM 39.1754 -76.6683 293° West  Level Estimated
01:47PM 39.1754 -76.6683 293° West  Level Estimated
01:48PM 39.1754 -76.6683 293° West  Level Estimated
01:49PM 39.1754 -76.6683 293° West  Level Estimated